createdAt,value
2023-03-21T00:00:44.480Z,12.77
2023-03-21T00:03:12.036Z,14.77
2023-03-21T00:05:45.699Z,12.38
2023-03-21T00:08:12.853Z,15.63
2023-03-21T00:10:43.731Z,15.30
2023-03-21T00:13:13.438Z,20.17
2023-03-21T00:16:05.317Z,18.17
2023-03-21T00:18:41.984Z,20.40
2023-03-21T00:21:41.013Z,17.90
2023-03-21T00:24:02.694Z,19.10
2023-03-21T00:26:29.688Z,21.02
2023-03-21T00:28:57.077Z,20.50
2023-03-21T00:31:24.247Z,19.10
2023-03-21T00:33:51.617Z,20.98
2023-03-21T00:36:18.959Z,18.25
2023-03-21T00:38:46.031Z,17.17
2023-03-21T00:41:26.369Z,16.90
2023-03-21T00:44:02.295Z,19.25
2023-03-21T00:46:39.803Z,14.68
2023-03-21T00:49:09.557Z,15.85
2023-03-21T00:51:36.830Z,16.88
2023-03-21T00:54:05.636Z,17.20
2023-03-21T00:56:32.920Z,15.05
2023-03-21T00:58:59.932Z,18.00
2023-03-21T01:01:32.350Z,15.18
2023-03-21T01:04:07.844Z,12.60
2023-03-21T01:06:41.034Z,10.90
2023-03-21T01:09:23.836Z,17.15
2023-03-21T01:11:51.378Z,16.30
2023-03-21T01:14:23.595Z,11.27
2023-03-21T01:16:54.429Z,13.43
2023-03-21T01:19:44.250Z,10.95
2023-03-21T01:22:15.806Z,12.55
2023-03-21T01:24:52.390Z,11.88
2023-03-21T01:27:22.683Z,11.75
2023-03-21T01:29:49.596Z,10.07
2023-03-21T01:32:16.782Z,8.55
2023-03-21T01:34:43.819Z,9.68
2023-03-21T01:37:11.162Z,10.05
2023-03-21T01:39:38.067Z,14.00
2023-03-21T01:42:05.270Z,12.80
2023-03-21T01:44:32.281Z,8.50
2023-03-21T01:47:10.478Z,9.65
2023-03-21T01:49:48.600Z,13.10
2023-03-21T01:52:42.735Z,11.68
2023-03-21T01:55:13.768Z,10.95
2023-03-21T01:58:03.978Z,14.40
2023-03-21T02:00:33.660Z,12.38
2023-03-21T02:03:12.781Z,9.60
2023-03-21T02:06:03.143Z,11.23
2023-03-21T02:08:39.227Z,19.25
2023-03-21T02:11:10.088Z,13.20
2023-03-21T02:13:37.672Z,15.80
2023-03-21T02:16:25.671Z,12.07
2023-03-21T02:19:22.910Z,12.52
2023-03-21T02:22:19.721Z,7.95
2023-03-21T02:25:22.213Z,8.88
2023-03-21T02:28:29.264Z,11.95
2023-03-21T02:31:14.119Z,10.90
2023-03-21T02:33:59.473Z,8.50
2023-03-21T02:36:48.332Z,9.88
2023-03-21T02:39:43.064Z,11.98
2023-03-21T02:42:22.138Z,11.57
2023-03-21T02:45:14.193Z,13.00
2023-03-21T02:48:04.721Z,12.55
2023-03-21T02:50:47.036Z,10.63
2023-03-21T02:53:19.997Z,14.93
2023-03-21T02:55:48.651Z,8.00
2023-03-21T02:58:21.209Z,11.25
2023-03-21T03:00:49.543Z,8.38
2023-03-21T03:03:27.879Z,10.35
2023-03-21T03:06:01.264Z,12.93
2023-03-21T03:09:02.153Z,12.73
2023-03-21T03:11:40.182Z,9.63
2023-03-21T03:14:44.158Z,11.63
2023-03-21T03:17:29.368Z,12.35
2023-03-21T03:20:16.488Z,11.07
2023-03-21T03:23:27.127Z,12.95
2023-03-21T03:26:06.345Z,14.13
2023-03-21T03:28:44.754Z,11.75
2023-03-21T03:31:16.065Z,14.52
2023-03-21T03:33:49.384Z,13.38
2023-03-21T03:39:07.477Z,16.58
2023-03-21T03:42:12.658Z,12.40
2023-03-21T03:44:45.750Z,10.73
2023-03-21T03:48:15.910Z,12.57
2023-03-21T03:51:22.823Z,12.77
2023-03-21T03:54:15.320Z,10.55
2023-03-21T03:56:42.611Z,13.83
2023-03-21T03:59:09.585Z,10.65
2023-03-21T04:01:37.748Z,10.15
2023-03-21T04:04:13.311Z,11.00
2023-03-21T04:06:41.463Z,11.32
2023-03-21T04:09:19.128Z,12.82
2023-03-21T04:11:47.982Z,8.88
2023-03-21T04:14:15.470Z,13.75
2023-03-21T04:16:42.932Z,8.43
2023-03-21T04:19:10.000Z,12.25
2023-03-21T04:21:37.232Z,10.48
2023-03-21T04:24:04.952Z,10.63
2023-03-21T04:26:33.592Z,10.57
2023-03-21T04:29:03.850Z,15.32
2023-03-21T04:31:33.963Z,9.88
2023-03-21T04:34:07.864Z,13.07
2023-03-21T04:36:39.472Z,15.20
2023-03-21T04:39:12.628Z,13.48
2023-03-21T04:44:14.172Z,12.07
2023-03-21T04:46:41.436Z,12.48
2023-03-21T04:49:09.339Z,11.18
2023-03-21T04:51:37.587Z,17.60
2023-03-21T04:54:05.991Z,23.52
2023-03-21T04:56:33.967Z,28.25
2023-03-21T04:59:06.911Z,34.70
2023-03-21T05:01:34.302Z,30.17
2023-03-21T05:04:02.801Z,18.73
2023-03-21T05:06:32.218Z,27.45
2023-03-21T05:09:07.558Z,17.98
2023-03-21T05:11:38.081Z,15.30
2023-03-21T05:14:10.422Z,20.27
2023-03-21T05:16:45.243Z,21.10
2023-03-21T05:19:13.981Z,21.00
2023-03-21T05:21:42.129Z,15.77
2023-03-21T05:24:13.574Z,17.65
2023-03-21T05:26:42.576Z,18.25
2023-03-21T05:29:10.495Z,16.50
2023-03-21T05:31:37.873Z,14.88
2023-03-21T05:34:05.706Z,14.82
2023-03-21T05:36:36.083Z,13.57
2023-03-21T05:39:03.901Z,12.40
2023-03-21T05:41:31.062Z,12.70
2023-03-21T05:43:58.119Z,17.75
2023-03-21T05:46:25.159Z,12.88
2023-03-21T05:48:52.458Z,18.95
2023-03-21T05:51:19.473Z,14.52
2023-03-21T05:53:46.581Z,14.15
2023-03-21T05:56:13.641Z,11.52
2023-03-21T05:58:40.766Z,12.73
2023-03-21T06:01:08.439Z,12.85
2023-03-21T06:03:35.975Z,12.88
2023-03-21T06:06:03.719Z,13.93
2023-03-21T06:08:32.079Z,16.50
2023-03-21T06:10:58.904Z,14.63
2023-03-21T06:13:26.065Z,16.15
2023-03-21T06:15:53.075Z,17.70
2023-03-21T06:18:20.144Z,17.92
2023-03-21T06:20:47.260Z,16.88
2023-03-21T06:23:14.099Z,14.15
2023-03-21T06:25:41.246Z,12.98
2023-03-21T06:28:08.261Z,14.63
2023-03-21T06:30:35.380Z,19.02
2023-03-21T06:33:02.247Z,14.07
2023-03-21T06:35:29.139Z,11.77
2023-03-21T06:37:58.466Z,13.48
2023-03-21T06:40:25.587Z,11.02
2023-03-21T06:42:52.577Z,11.85
2023-03-21T06:45:19.876Z,13.82
2023-03-21T06:47:46.904Z,10.80
2023-03-21T06:50:13.824Z,13.00
2023-03-21T06:52:40.772Z,12.48
2023-03-21T06:55:08.853Z,10.75
2023-03-21T06:57:35.957Z,11.52
2023-03-21T07:00:05.557Z,10.95
2023-03-21T07:02:32.784Z,12.43
2023-03-21T07:05:00.087Z,11.35
2023-03-21T07:07:29.080Z,9.63
2023-03-21T07:09:56.616Z,7.40
2023-03-21T07:12:24.353Z,6.40
2023-03-21T07:14:51.466Z,8.20
2023-03-21T07:17:18.854Z,6.65
2023-03-21T07:19:45.995Z,8.32
2023-03-21T07:22:14.916Z,9.60
2023-03-21T07:24:41.958Z,9.13
2023-03-21T07:27:09.235Z,5.07
2023-03-21T07:29:36.071Z,8.02
2023-03-21T07:32:03.200Z,6.05
2023-03-21T07:34:33.123Z,9.32
2023-03-21T07:37:00.625Z,8.68
2023-03-21T07:39:28.181Z,11.32
2023-03-21T07:41:58.396Z,10.93
2023-03-21T07:44:25.432Z,9.07
2023-03-21T07:46:52.340Z,7.53
2023-03-21T07:49:19.427Z,6.15
2023-03-21T07:51:46.625Z,7.35
2023-03-21T07:54:13.675Z,5.00
2023-03-21T07:56:41.728Z,5.82
2023-03-21T07:59:08.690Z,6.20
2023-03-21T08:01:35.974Z,5.05
2023-03-21T08:04:02.804Z,7.88
2023-03-21T08:06:32.467Z,6.55
2023-03-21T08:09:00.094Z,6.13
2023-03-21T08:11:28.027Z,6.20
2023-03-21T08:13:56.590Z,5.43
2023-03-21T08:16:23.993Z,6.90
2023-03-21T08:18:51.015Z,4.43
2023-03-21T08:21:18.542Z,6.63
2023-03-21T08:23:45.685Z,5.72
2023-03-21T08:26:18.894Z,6.38
2023-03-21T08:28:47.080Z,5.50
2023-03-21T08:31:14.947Z,6.07
2023-03-21T08:33:41.965Z,7.15
2023-03-21T08:36:09.713Z,6.72
2023-03-21T08:38:38.166Z,6.15
2023-03-21T08:41:05.409Z,5.47
2023-03-21T08:43:32.475Z,6.20
2023-03-21T08:45:59.775Z,6.50
2023-03-21T08:48:26.972Z,4.95
2023-03-21T08:50:54.023Z,7.88
2023-03-21T08:53:20.927Z,9.38
2023-03-21T08:55:49.867Z,7.25
2023-03-21T08:58:19.809Z,4.90
2023-03-21T09:00:46.896Z,6.22
2023-03-21T09:03:13.818Z,7.38
2023-03-21T09:05:40.982Z,6.38
2023-03-21T09:08:07.981Z,5.80
2023-03-21T09:10:34.909Z,6.97
2023-03-21T09:13:02.084Z,4.55
2023-03-21T09:15:29.971Z,5.60
2023-03-21T09:17:58.854Z,5.00
2023-03-21T09:20:31.334Z,5.22
2023-03-21T09:23:01.270Z,3.90
2023-03-21T09:25:31.911Z,4.72
2023-03-21T09:28:00.777Z,7.05
2023-03-21T09:30:28.655Z,7.20
2023-03-21T09:32:56.191Z,6.38
2023-03-21T09:35:24.356Z,3.50
2023-03-21T09:37:51.713Z,5.32
2023-03-21T09:40:41.024Z,6.93
2023-03-21T09:43:21.047Z,4.50
2023-03-21T09:45:51.559Z,5.60
2023-03-21T09:48:57.032Z,6.53
2023-03-21T09:51:35.230Z,5.38
2023-03-21T09:54:12.533Z,5.03
2023-03-21T09:56:43.213Z,4.80
2023-03-21T09:59:21.711Z,5.13
2023-03-21T10:01:49.682Z,4.25
2023-03-21T10:04:18.995Z,5.32
2023-03-21T10:07:02.208Z,6.72
2023-03-21T10:09:32.622Z,10.23
2023-03-21T10:12:08.383Z,6.57
2023-03-21T10:14:44.456Z,4.07
2023-03-21T10:17:29.447Z,6.05
2023-03-21T10:20:21.753Z,5.53
2023-03-21T10:23:02.314Z,4.73
2023-03-21T10:25:43.447Z,9.38
2023-03-21T10:28:18.602Z,5.75
2023-03-21T10:30:50.295Z,6.45
2023-03-21T10:33:27.429Z,6.93
2023-03-21T10:36:00.422Z,6.97
2023-03-21T10:38:28.366Z,7.07
2023-03-21T10:40:55.992Z,7.18
2023-03-21T10:43:34.797Z,6.28
2023-03-21T10:46:22.087Z,5.00
2023-03-21T10:48:53.228Z,5.53
2023-03-21T10:51:24.016Z,6.60
2023-03-21T10:53:56.312Z,6.32
2023-03-21T10:56:31.286Z,6.28
2023-03-21T10:59:00.938Z,6.38
2023-03-21T11:01:36.738Z,8.90
2023-03-21T11:04:31.100Z,7.07
2023-03-21T11:07:02.982Z,6.80
2023-03-21T11:10:29.711Z,9.10
2023-03-21T11:13:00.773Z,7.82
2023-03-21T11:15:41.687Z,6.65
2023-03-21T11:18:24.778Z,7.28
2023-03-21T11:20:56.936Z,6.32
2023-03-21T11:23:30.731Z,5.57
2023-03-21T11:26:01.343Z,8.40
2023-03-21T11:28:37.888Z,5.07
2023-03-21T11:31:07.320Z,7.03
2023-03-21T11:33:38.579Z,5.70
2023-03-21T11:36:10.862Z,5.32
2023-03-21T11:38:40.456Z,6.43
2023-03-21T11:41:08.256Z,4.00
2023-03-21T11:43:40.189Z,6.75
2023-03-21T11:46:10.376Z,6.75
2023-03-21T11:48:49.342Z,7.55
2023-03-21T11:51:43.712Z,6.93
2023-03-21T11:54:51.486Z,5.53
2023-03-21T11:57:36.614Z,7.05
2023-03-21T12:00:30.529Z,10.23
2023-03-21T12:04:13.843Z,7.18
2023-03-21T12:06:55.433Z,6.05
2023-03-21T12:09:37.598Z,6.65
2023-03-21T12:12:22.012Z,8.17
2023-03-21T12:15:11.374Z,7.30
2023-03-21T12:18:07.492Z,9.90
2023-03-21T12:20:41.520Z,8.02
2023-03-21T12:23:30.007Z,11.30
2023-03-21T12:27:01.145Z,5.80
2023-03-21T12:30:42.416Z,6.18
2023-03-21T12:33:31.503Z,6.60
2023-03-21T12:36:22.729Z,8.05
2023-03-21T12:39:10.659Z,7.60
2023-03-21T12:42:25.474Z,8.95
2023-03-21T12:45:15.772Z,6.75
2023-03-21T12:47:51.803Z,6.57
2023-03-21T12:50:28.146Z,10.68
2023-03-21T12:53:04.162Z,10.98
2023-03-21T12:55:34.896Z,8.45
2023-03-21T12:58:14.234Z,12.38
2023-03-21T13:00:48.500Z,10.63
2023-03-21T13:03:39.254Z,8.35
2023-03-21T13:06:11.503Z,9.52
2023-03-21T13:08:50.647Z,12.55
2023-03-21T13:11:25.883Z,9.32
2023-03-21T13:14:22.097Z,12.52
2023-03-21T13:17:10.990Z,9.00
2023-03-21T13:19:54.200Z,10.70
2023-03-21T13:22:31.877Z,7.70
2023-03-21T13:25:08.784Z,9.13
2023-03-21T13:27:39.786Z,9.55
2023-03-21T13:30:28.764Z,9.07
2023-03-21T13:33:15.125Z,6.00
2023-03-21T13:35:45.474Z,9.05
2023-03-21T13:38:21.923Z,8.80
2023-03-21T13:41:01.826Z,8.52
2023-03-21T13:43:56.850Z,9.45
2023-03-21T13:46:27.248Z,9.57
2023-03-21T13:49:26.977Z,7.13
2023-03-21T13:51:58.368Z,18.20
2023-03-21T13:54:38.923Z,25.20
2023-03-21T13:57:08.656Z,14.80
2023-03-21T13:59:41.598Z,11.95
2023-03-21T14:02:32.557Z,8.05
2023-03-21T14:05:06.958Z,9.18
2023-03-21T14:07:41.717Z,7.22
2023-03-21T14:10:23.582Z,7.00
2023-03-21T14:12:51.281Z,8.48
2023-03-21T14:15:40.909Z,8.60
2023-03-21T14:18:35.262Z,5.43
2023-03-21T14:21:24.367Z,6.15
2023-03-21T14:24:07.932Z,31.27
2023-03-21T14:26:41.968Z,12.88
2023-03-21T14:29:25.749Z,5.95
2023-03-21T14:31:55.649Z,5.75
2023-03-21T14:34:23.918Z,6.32
2023-03-21T14:36:58.053Z,7.85
2023-03-21T14:39:32.210Z,8.90
2023-03-21T14:42:13.681Z,9.38
2023-03-21T14:44:55.243Z,5.97
2023-03-21T14:47:32.220Z,5.28
2023-03-21T14:50:01.237Z,6.53
2023-03-21T14:52:35.239Z,7.80
2023-03-21T14:55:12.091Z,7.53
2023-03-21T14:57:39.376Z,5.97
2023-03-21T15:00:12.991Z,5.07
2023-03-21T15:02:43.575Z,9.98
2023-03-21T15:05:22.632Z,8.88
2023-03-21T15:08:02.708Z,7.32
2023-03-21T15:10:31.959Z,11.00
2023-03-21T15:13:18.441Z,9.10
2023-03-21T15:15:45.774Z,8.65
2023-03-21T15:18:20.500Z,6.00
2023-03-21T15:20:50.479Z,32.60
2023-03-21T15:23:37.535Z,10.55
2023-03-21T15:26:06.013Z,9.27
2023-03-21T15:28:36.687Z,6.07
2023-03-21T15:31:05.486Z,5.53
2023-03-21T15:33:33.408Z,11.65
2023-03-21T15:36:00.920Z,6.15
2023-03-21T15:38:34.978Z,6.10
2023-03-21T15:41:20.533Z,5.30
2023-03-21T15:44:09.585Z,4.90
2023-03-21T15:46:47.991Z,6.50
2023-03-21T15:49:14.959Z,4.47
2023-03-21T15:51:56.495Z,6.05
2023-03-21T15:54:45.144Z,6.90
2023-03-21T15:57:30.253Z,9.00
2023-03-21T16:00:11.034Z,5.68
2023-03-21T16:02:41.303Z,6.22
2023-03-21T16:05:31.864Z,5.05
2023-03-21T16:08:20.163Z,5.28
2023-03-21T16:10:49.536Z,6.38
2023-03-21T16:13:17.869Z,5.00
2023-03-21T16:15:46.984Z,3.90
2023-03-21T16:18:22.306Z,2.38
2023-03-21T16:20:50.228Z,3.72
2023-03-21T16:23:17.981Z,3.58
2023-03-21T16:25:45.869Z,2.40
2023-03-21T16:28:17.828Z,3.75
2023-03-21T16:30:45.666Z,3.05
2023-03-21T16:33:13.579Z,4.07
2023-03-21T16:35:41.565Z,5.57
2023-03-21T16:38:11.669Z,3.40
2023-03-21T16:40:41.934Z,4.38
2023-03-21T16:43:10.148Z,2.65
2023-03-21T16:45:38.126Z,4.35
2023-03-21T16:48:05.611Z,2.92
2023-03-21T16:50:42.469Z,2.80
2023-03-21T16:53:09.902Z,3.83
2023-03-21T16:55:39.082Z,2.50
2023-03-21T16:58:06.826Z,4.38
2023-03-21T17:00:34.714Z,5.30
2023-03-21T17:03:12.664Z,2.92
2023-03-21T17:05:39.831Z,5.90
2023-03-21T17:08:08.994Z,3.00
2023-03-21T17:10:36.279Z,3.33
2023-03-21T17:13:06.104Z,2.90
2023-03-21T17:15:33.120Z,4.03
2023-03-21T17:18:00.431Z,5.28
2023-03-21T17:20:35.565Z,3.03
2023-03-21T17:23:05.405Z,4.22
2023-03-21T17:25:32.334Z,3.28
2023-03-21T17:27:59.439Z,4.47
2023-03-21T17:30:34.492Z,4.10
2023-03-21T17:33:04.443Z,4.20
2023-03-21T17:35:31.683Z,4.80
2023-03-21T17:37:58.982Z,8.93
2023-03-21T17:40:30.100Z,5.05
2023-03-21T17:42:58.581Z,3.85
2023-03-21T17:45:26.197Z,5.78
2023-03-21T17:47:54.832Z,4.03
2023-03-21T17:50:26.513Z,5.45
2023-03-21T17:52:56.481Z,4.95
2023-03-21T17:55:24.169Z,4.10
2023-03-21T17:57:51.488Z,6.50
2023-03-21T18:00:23.991Z,3.90
2023-03-21T18:02:52.290Z,6.57
2023-03-21T18:05:22.029Z,6.75
2023-03-21T18:08:09.753Z,5.25
2023-03-21T18:10:38.260Z,4.30
2023-03-21T18:13:08.408Z,7.28
2023-03-21T18:15:38.114Z,6.43
2023-03-21T18:18:05.965Z,7.28
2023-03-21T18:23:21.805Z,6.40
2023-03-21T18:25:50.008Z,4.03
2023-03-21T18:28:20.350Z,3.30
2023-03-21T18:33:40.758Z,10.13
2023-03-21T18:36:09.701Z,6.30
2023-03-21T18:38:37.385Z,7.20
2023-03-21T18:41:06.322Z,8.15
2023-03-21T18:46:22.301Z,10.80
2023-03-21T18:48:51.596Z,6.05
2023-03-21T18:51:19.404Z,3.60
2023-03-21T18:53:46.521Z,4.45
2023-03-21T18:56:51.340Z,5.07
2023-03-21T18:59:02.000Z,4.47
2023-03-21T19:01:29.173Z,5.50
2023-03-21T19:04:20.459Z,5.45
2023-03-21T19:06:48.256Z,6.80
2023-03-21T19:09:15.960Z,5.40
2023-03-21T19:11:43.281Z,7.10
2023-03-21T19:14:12.763Z,6.50
2023-03-21T19:17:14.931Z,5.47
2023-03-21T19:19:28.651Z,4.38
2023-03-21T19:21:56.885Z,6.00
2023-03-21T19:24:28.082Z,3.80
2023-03-21T19:26:56.236Z,6.65
2023-03-21T19:29:23.397Z,4.70
2023-03-21T19:31:53.385Z,4.32
2023-03-21T19:34:21.136Z,4.57
2023-03-21T19:36:52.505Z,4.82
2023-03-21T19:39:22.800Z,6.05
2023-03-21T19:41:51.643Z,5.30
2023-03-21T19:44:21.634Z,5.90
2023-03-21T19:46:51.197Z,5.68
2023-03-21T19:49:26.213Z,5.07
2023-03-21T19:52:01.639Z,6.35
2023-03-21T19:54:30.244Z,5.05
2023-03-21T19:56:57.317Z,7.25
2023-03-21T19:59:24.680Z,4.40
2023-03-21T20:01:56.469Z,6.97
2023-03-21T20:04:26.649Z,3.60
2023-03-21T20:06:58.120Z,4.38
2023-03-21T20:09:50.628Z,5.93
2023-03-21T20:12:12.556Z,5.93
2023-03-21T20:14:40.942Z,8.30
2023-03-21T20:17:08.754Z,7.53
2023-03-21T20:19:38.706Z,6.63
2023-03-21T20:22:20.161Z,7.32
2023-03-21T20:24:54.296Z,8.57
2023-03-21T20:27:25.242Z,7.68
2023-03-21T20:30:10.152Z,13.30
2023-03-21T20:32:38.906Z,7.28
2023-03-21T20:35:19.263Z,7.65
2023-03-21T20:37:49.858Z,12.98
2023-03-21T20:40:19.408Z,16.38
2023-03-21T20:42:48.926Z,13.75
2023-03-21T20:45:17.543Z,10.13
2023-03-21T20:47:44.763Z,7.95
2023-03-21T20:50:15.085Z,9.50
2023-03-21T20:53:04.842Z,9.45
2023-03-21T20:55:30.087Z,6.65
2023-03-21T20:57:56.958Z,9.93
2023-03-21T21:00:24.990Z,9.00
2023-03-21T21:02:52.072Z,12.48
2023-03-21T21:05:35.673Z,11.50
2023-03-21T21:08:03.813Z,11.43
2023-03-21T21:10:33.597Z,11.05
2023-03-21T21:13:01.365Z,9.73
2023-03-21T21:15:28.482Z,14.27
2023-03-21T21:18:07.873Z,15.35
2023-03-21T21:20:37.427Z,13.23
2023-03-21T21:23:05.341Z,17.10
2023-03-21T21:25:34.040Z,11.55
2023-03-21T21:28:03.762Z,11.00
2023-03-21T21:30:32.582Z,9.50
2023-03-21T21:33:01.409Z,8.85
2023-03-21T21:35:28.919Z,9.10
2023-03-21T21:37:56.334Z,7.82
2023-03-21T21:40:24.037Z,8.13
2023-03-21T21:42:54.686Z,9.25
2023-03-21T21:45:21.833Z,8.35
2023-03-21T21:47:49.013Z,7.13
2023-03-21T21:50:15.994Z,7.43
2023-03-21T21:52:43.977Z,6.80
2023-03-21T21:55:13.441Z,7.97
2023-03-21T21:57:42.029Z,6.47
2023-03-21T22:00:13.865Z,6.40
2023-03-21T22:02:41.562Z,7.38
2023-03-21T22:05:09.418Z,7.78
2023-03-21T22:07:38.027Z,7.20
2023-03-21T22:10:06.623Z,8.88
2023-03-21T22:12:33.870Z,7.43
2023-03-21T22:15:00.914Z,13.82
2023-03-21T22:17:27.859Z,11.98
2023-03-21T22:20:05.002Z,8.88
2023-03-21T22:22:34.821Z,10.23
2023-03-21T22:25:03.341Z,8.35
2023-03-21T22:27:31.204Z,12.07
2023-03-21T22:30:04.709Z,7.88
2023-03-21T22:32:33.866Z,7.45
2023-03-21T22:35:02.616Z,7.32
2023-03-21T22:37:36.017Z,9.90
2023-03-21T22:40:05.609Z,6.55
2023-03-21T22:42:34.273Z,9.40
2023-03-21T22:45:01.738Z,9.35
2023-03-21T22:47:28.932Z,10.35
2023-03-21T22:49:56.387Z,9.30
2023-03-21T22:52:24.045Z,7.72
2023-03-21T22:54:51.340Z,10.80
2023-03-21T22:57:21.423Z,7.70
2023-03-21T22:59:48.872Z,7.13
2023-03-21T23:02:16.237Z,7.05
2023-03-21T23:04:43.396Z,7.68
2023-03-21T23:07:10.791Z,7.38
2023-03-21T23:09:38.133Z,6.82
2023-03-21T23:12:05.616Z,7.03
2023-03-21T23:14:32.803Z,7.90
2023-03-21T23:17:00.244Z,6.78
2023-03-21T23:19:28.872Z,9.30
2023-03-21T23:21:56.914Z,9.65
2023-03-21T23:24:24.676Z,7.30
2023-03-21T23:26:51.816Z,9.93
2023-03-21T23:29:18.750Z,5.53
2023-03-21T23:31:46.065Z,8.10
2023-03-21T23:34:14.537Z,8.30
2023-03-21T23:36:42.352Z,11.50
2023-03-21T23:39:10.185Z,6.93
2023-03-21T23:41:37.370Z,11.82
2023-03-21T23:44:05.037Z,7.50
2023-03-21T23:46:32.584Z,7.25
2023-03-21T23:48:59.851Z,9.45
2023-03-21T23:51:27.343Z,9.32
2023-03-21T23:53:56.613Z,11.82
2023-03-21T23:56:26.983Z,8.40
2023-03-21T23:58:53.973Z,6.97
